createdAt,value
2022-10-27T00:00:10.830Z,68598.97
2022-10-27T00:02:42.036Z,68597.84
2022-10-27T00:05:09.219Z,68599.56
2022-10-27T00:07:37.554Z,68600.91
2022-10-27T00:10:06.175Z,68592.34
2022-10-27T00:12:34.229Z,68596.16
2022-10-27T00:15:01.314Z,68591.78
2022-10-27T00:17:28.873Z,68595.38
2022-10-27T00:19:55.957Z,68595.97
2022-10-27T00:22:23.424Z,68604.66
2022-10-27T00:24:50.504Z,68613.75
2022-10-27T00:27:17.515Z,68623.25
2022-10-27T00:29:44.620Z,68622.25
2022-10-27T00:32:11.781Z,68622.47
2022-10-27T00:34:38.827Z,68625.13
2022-10-27T00:37:06.277Z,68618.88
2022-10-27T00:39:33.310Z,68614.91
2022-10-27T00:42:00.364Z,68593.81
2022-10-27T00:44:30.494Z,68606.94
2022-10-27T00:46:59.693Z,68582.47
2022-10-27T00:49:29.198Z,68610.72
2022-10-27T00:52:04.940Z,68615.25
2022-10-27T00:54:34.866Z,68607.13
2022-10-27T00:57:02.539Z,68596.91
2022-10-27T00:59:29.669Z,68597.28
2022-10-27T01:04:35.311Z,68587.25
2022-10-27T01:07:02.635Z,68593.50
2022-10-27T01:09:30.365Z,68590.28
2022-10-27T01:11:58.301Z,68589.72
2022-10-27T01:14:26.280Z,68560.34
2022-10-27T01:17:04.139Z,68592.19
2022-10-27T01:19:40.190Z,68567.13
2022-10-27T01:22:11.816Z,68586.66
2022-10-27T01:24:38.882Z,68584.41
2022-10-27T01:27:08.894Z,68578.00
2022-10-27T01:29:41.943Z,68583.66
2022-10-27T01:32:08.950Z,68569.47
2022-10-27T01:34:35.967Z,68541.59
2022-10-27T01:37:23.636Z,68556.97
2022-10-27T01:39:56.205Z,68560.94
2022-10-27T01:42:45.231Z,68568.34
2022-10-27T01:45:14.469Z,68535.94
2022-10-27T01:47:41.603Z,68553.19
2022-10-27T01:50:09.115Z,68542.22
2022-10-27T01:52:38.926Z,68514.94
2022-10-27T01:55:07.205Z,68542.22
2022-10-27T01:57:44.182Z,68527.25
2022-10-27T02:00:11.653Z,68522.13
2022-10-27T02:02:44.085Z,68528.59
2022-10-27T02:05:12.357Z,68522.72
2022-10-27T02:07:49.517Z,68497.34
2022-10-27T02:10:18.661Z,68520.66
2022-10-27T02:12:46.347Z,68519.88
2022-10-27T02:15:21.667Z,68508.34
2022-10-27T02:17:49.785Z,68489.97
2022-10-27T02:20:24.340Z,68507.59
2022-10-27T02:22:54.630Z,68512.50
2022-10-27T02:25:24.919Z,68482.00
2022-10-27T02:27:57.100Z,68505.88
2022-10-27T02:30:24.156Z,68474.06
2022-10-27T02:32:51.617Z,68494.69
2022-10-27T02:35:18.991Z,68497.91
2022-10-27T02:37:46.576Z,68500.94
2022-10-27T02:40:13.923Z,68501.88
2022-10-27T02:42:42.082Z,68494.53
2022-10-27T02:45:09.332Z,68496.03
2022-10-27T02:47:36.403Z,68490.72
2022-10-27T02:50:03.537Z,68493.19
2022-10-27T02:52:31.048Z,68491.69
2022-10-27T02:54:58.108Z,68490.53
2022-10-27T02:57:25.103Z,68488.84
2022-10-27T02:59:53.769Z,68485.25
2022-10-27T03:02:23.466Z,68480.88
2022-10-27T03:04:51.138Z,68479.75
2022-10-27T03:07:18.354Z,68469.34
2022-10-27T03:09:45.339Z,68452.50
2022-10-27T03:12:13.717Z,68471.44
2022-10-27T03:14:40.950Z,68475.03
2022-10-27T03:17:08.013Z,68466.31
2022-10-27T03:19:35.952Z,68464.63
2022-10-27T03:22:03.809Z,68467.09
2022-10-27T03:24:31.158Z,68475.41
2022-10-27T03:26:58.824Z,68461.03
2022-10-27T03:29:27.151Z,68430.41
2022-10-27T03:31:54.221Z,68456.31
2022-10-27T03:34:21.376Z,68446.28
2022-10-27T03:36:48.448Z,68446.28
2022-10-27T03:39:15.504Z,68445.72
2022-10-27T03:41:42.568Z,68445.53
2022-10-27T03:44:09.639Z,68446.84
2022-10-27T03:46:36.663Z,68446.47
2022-10-27T03:49:03.732Z,68444.59
2022-10-27T03:51:30.777Z,68444.00
2022-10-27T03:53:58.081Z,68449.91
2022-10-27T03:56:25.084Z,68449.13
2022-10-27T03:58:52.383Z,68456.31
2022-10-27T04:01:19.569Z,68443.41
2022-10-27T04:03:47.892Z,68462.34
2022-10-27T04:06:15.363Z,68458.22
2022-10-27T04:08:42.427Z,68450.81
2022-10-27T04:11:09.590Z,68443.66
2022-10-27T04:13:36.659Z,68437.03
2022-10-27T04:16:03.854Z,68437.78
2022-10-27T04:18:30.914Z,68419.81
2022-10-27T04:21:01.824Z,68410.00
2022-10-27T04:23:29.689Z,68405.09
2022-10-27T04:25:56.704Z,68374.81
2022-10-27T04:28:23.844Z,68397.31
2022-10-27T04:30:51.026Z,68400.16
2022-10-27T04:33:18.070Z,68396.94
2022-10-27T04:35:46.255Z,68401.84
2022-10-27T04:38:13.242Z,68390.72
2022-10-27T04:40:41.301Z,68382.19
2022-10-27T04:43:08.942Z,68377.66
2022-10-27T04:45:36.257Z,68377.66
2022-10-27T04:48:03.403Z,68377.66
2022-10-27T04:50:30.479Z,68375.78
2022-10-27T04:52:58.614Z,68365.94
2022-10-27T04:55:26.559Z,68371.44
2022-10-27T04:57:53.824Z,68373.50
2022-10-27T05:00:21.164Z,68375.78
2022-10-27T05:02:55.952Z,68369.16
2022-10-27T05:05:23.883Z,68367.84
2022-10-27T05:07:52.436Z,68361.03
2022-10-27T05:10:19.478Z,68361.22
2022-10-27T05:12:46.412Z,68369.16
2022-10-27T05:15:14.722Z,68380.69
2022-10-27T05:17:41.812Z,68371.44
2022-10-27T05:20:08.985Z,68366.53
2022-10-27T05:22:35.949Z,68362.94
2022-10-27T05:25:04.822Z,68367.84
2022-10-27T05:27:32.409Z,68374.63
2022-10-27T05:29:59.330Z,68370.88
2022-10-27T05:32:26.324Z,68369.34
2022-10-27T05:34:53.468Z,68369.16
2022-10-27T05:37:20.587Z,68348.75
2022-10-27T05:39:47.649Z,68372.56
2022-10-27T05:42:14.750Z,68378.59
2022-10-27T05:44:42.797Z,68379.19
2022-10-27T05:47:10.555Z,68381.63
2022-10-27T05:49:38.136Z,68392.03
2022-10-27T05:52:07.948Z,68390.50
2022-10-27T05:54:35.578Z,68389.56
2022-10-27T05:57:02.715Z,68387.13
2022-10-27T05:59:30.161Z,68378.97
2022-10-27T06:01:57.946Z,68381.44
2022-10-27T06:04:25.145Z,68376.72
2022-10-27T06:06:53.085Z,68376.53
2022-10-27T06:09:20.112Z,68351.03
2022-10-27T06:11:47.135Z,68370.88
2022-10-27T06:14:14.245Z,68363.66
2022-10-27T06:16:41.337Z,68360.09
2022-10-27T06:19:08.392Z,68349.50
2022-10-27T06:21:35.459Z,68352.34
2022-10-27T06:26:30.890Z,68347.25
2022-10-27T06:28:57.981Z,68350.66
2022-10-27T06:31:24.963Z,68323.25
2022-10-27T06:33:52.000Z,68332.13
2022-10-27T06:36:19.002Z,68332.31
2022-10-27T06:38:46.103Z,68343.84
2022-10-27T06:41:15.293Z,68340.81
2022-10-27T06:43:44.920Z,68347.63
2022-10-27T06:46:11.961Z,68353.84
2022-10-27T06:48:39.021Z,68358.59
2022-10-27T06:51:06.118Z,68364.81
2022-10-27T06:53:33.208Z,68369.53
2022-10-27T06:56:00.266Z,68386.19
2022-10-27T06:58:27.259Z,68388.44
2022-10-27T07:00:54.342Z,68370.84
2022-10-27T07:03:21.485Z,68398.66
2022-10-27T07:05:49.064Z,68393.19
2022-10-27T07:08:16.278Z,68395.81
2022-10-27T07:10:43.273Z,68397.16
2022-10-27T07:13:10.346Z,68400.53
2022-10-27T07:15:39.270Z,68406.19
2022-10-27T07:18:07.286Z,68415.66
2022-10-27T07:20:35.110Z,68420.97
2022-10-27T07:23:02.743Z,68431.16
2022-10-27T07:25:30.731Z,68437.38
2022-10-27T07:27:58.587Z,68443.81
2022-10-27T07:30:26.943Z,68450.81
2022-10-27T07:32:54.223Z,68453.66
2022-10-27T07:35:21.949Z,68459.53
2022-10-27T07:37:49.848Z,68471.81
2022-10-27T07:40:18.026Z,68486.19
2022-10-27T07:42:49.047Z,68484.09
2022-10-27T07:45:17.493Z,68497.34
2022-10-27T07:47:45.290Z,68504.38
2022-10-27T07:50:12.536Z,68485.44
2022-10-27T07:52:43.426Z,68526.13
2022-10-27T07:55:14.406Z,68553.19
2022-10-27T07:57:42.870Z,68603.16
2022-10-27T08:00:12.187Z,68657.13
2022-10-27T08:02:39.286Z,68666.78
2022-10-27T08:05:07.194Z,68688.13
2022-10-27T08:07:34.437Z,68730.44
2022-10-27T08:10:01.575Z,68706.94
2022-10-27T08:12:28.966Z,68667.34
2022-10-27T08:14:56.935Z,68634.59
2022-10-27T08:17:26.536Z,68626.81
2022-10-27T08:19:53.726Z,68623.59
2022-10-27T08:22:20.712Z,68636.09
2022-10-27T08:24:47.769Z,68613.69
2022-10-27T08:27:14.783Z,68688.38
2022-10-27T08:29:41.831Z,68708.25
2022-10-27T08:32:09.856Z,68710.34
2022-10-27T08:34:36.969Z,68696.16
2022-10-27T08:37:03.978Z,68697.78
2022-10-27T08:39:31.036Z,68767.38
2022-10-27T08:42:04.074Z,68744.66
2022-10-27T08:44:33.984Z,68747.31
2022-10-27T08:50:42.843Z,68838.47
2022-10-27T08:53:13.685Z,68932.19
2022-10-27T08:55:48.053Z,68896.78
2022-10-27T08:58:41.031Z,68968.44
2022-10-27T09:01:17.297Z,69085.41
2022-10-27T09:03:53.599Z,69094.69
2022-10-27T09:06:29.435Z,69037.72
2022-10-27T09:09:15.183Z,69043.41
2022-10-27T09:11:48.452Z,69102.66
2022-10-27T09:14:49.312Z,69110.47
2022-10-27T09:17:20.467Z,69107.50
2022-10-27T09:20:06.198Z,69130.84
2022-10-27T09:25:05.774Z,69052.53
2022-10-27T09:27:34.072Z,69055.66
2022-10-27T09:30:07.070Z,69069.06
2022-10-27T09:32:38.249Z,69059.94
2022-10-27T09:35:10.647Z,69001.81
2022-10-27T09:37:40.879Z,69030.72
2022-10-27T09:40:16.605Z,69031.28
2022-10-27T09:42:44.026Z,69013.78
2022-10-27T09:45:15.626Z,69000.13
2022-10-27T09:47:44.419Z,68993.47
2022-10-27T09:50:20.382Z,68983.06
2022-10-27T09:52:48.902Z,68994.72
2022-10-27T09:55:16.433Z,69011.50
2022-10-27T09:57:44.239Z,69028.03
2022-10-27T10:00:15.020Z,69029.75
2022-10-27T10:02:54.207Z,69032.31
2022-10-27T10:05:21.473Z,69087.13
2022-10-27T10:07:48.618Z,69114.47
2022-10-27T10:10:18.617Z,69127.00
2022-10-27T10:12:46.084Z,69130.59
2022-10-27T10:15:13.082Z,69117.75
2022-10-27T10:17:41.883Z,69136.88
2022-10-27T10:20:24.413Z,69148.66
2022-10-27T10:22:51.867Z,69156.81
2022-10-27T10:25:30.599Z,69176.44
2022-10-27T10:27:59.619Z,69142.25
2022-10-27T10:30:27.622Z,69165.78
2022-10-27T10:32:55.834Z,69154.69
2022-10-27T10:35:43.071Z,69182.47
2022-10-27T10:38:25.321Z,69162.22
2022-10-27T10:41:02.554Z,69201.13
2022-10-27T10:43:29.861Z,69181.34
2022-10-27T10:45:57.655Z,69175.88
2022-10-27T10:48:24.760Z,69161.63
2022-10-27T10:50:52.619Z,69176.44
2022-10-27T10:53:33.367Z,69187.63
2022-10-27T10:56:06.037Z,69184.44
2022-10-27T10:58:36.011Z,69203.81
2022-10-27T11:01:05.399Z,69244.06
2022-10-27T11:03:34.278Z,69257.19
2022-10-27T11:06:05.446Z,69246.59
2022-10-27T11:08:39.583Z,69227.19
2022-10-27T11:11:19.110Z,69245.44
2022-10-27T11:14:01.042Z,69222.06
2022-10-27T11:16:31.275Z,69276.41
2022-10-27T11:19:11.787Z,69267.28
2022-10-27T11:21:39.489Z,69277.16
2022-10-27T11:24:15.013Z,69284.00
2022-10-27T11:26:47.179Z,69294.09
2022-10-27T11:29:18.825Z,69267.13
2022-10-27T11:31:59.987Z,69284.22
2022-10-27T11:34:43.826Z,69306.25
2022-10-27T11:37:29.679Z,69285.94
2022-10-27T11:40:05.977Z,69319.38
2022-10-27T11:42:42.440Z,69291.06
2022-10-27T11:45:17.077Z,69294.50
2022-10-27T11:47:51.995Z,69338.03
2022-10-27T11:50:24.634Z,69360.47
2022-10-27T11:52:53.770Z,69370.59
2022-10-27T11:55:22.419Z,69358.41
2022-10-27T11:57:56.087Z,69371.91
2022-10-27T12:00:30.111Z,69385.59
2022-10-27T12:02:57.179Z,69362.41
2022-10-27T12:05:47.434Z,69364.09
2022-10-27T12:08:24.072Z,69387.50
2022-10-27T12:11:07.073Z,69368.13
2022-10-27T12:13:39.874Z,69401.59
2022-10-27T12:16:09.742Z,69368.69
2022-10-27T12:18:47.313Z,69385.59
2022-10-27T12:21:26.122Z,69375.88
2022-10-27T12:23:53.216Z,69392.84
2022-10-27T12:26:20.160Z,69396.44
2022-10-27T12:28:48.425Z,69381.44
2022-10-27T12:31:17.933Z,69340.69
2022-10-27T12:33:56.304Z,69354.03
2022-10-27T12:36:27.706Z,69332.16
2022-10-27T12:38:59.324Z,69321.88
2022-10-27T12:41:30.761Z,69320.72
2022-10-27T12:44:07.962Z,69336.50
2022-10-27T12:46:35.029Z,69339.34
2022-10-27T12:49:11.442Z,69327.00
2022-10-27T12:51:42.689Z,69329.66
2022-10-27T12:54:19.618Z,69311.63
2022-10-27T12:56:49.800Z,69333.31
2022-10-27T12:59:26.687Z,69323.38
2022-10-27T13:01:59.041Z,69313.69
2022-10-27T13:04:32.132Z,69309.66
2022-10-27T13:07:17.630Z,69306.66
2022-10-27T13:09:56.871Z,69285.94
2022-10-27T13:12:33.952Z,69285.94
2022-10-27T13:15:04.092Z,69320.34
2022-10-27T13:17:43.615Z,69294.50
2022-10-27T13:20:24.983Z,69334.78
2022-10-27T13:22:55.461Z,69309.91
2022-10-27T13:25:29.463Z,69308.75
2022-10-27T13:28:16.835Z,69332.34
2022-10-27T13:30:51.552Z,69323.38
2022-10-27T13:33:32.441Z,69316.69
2022-10-27T13:36:15.871Z,69309.09
2022-10-27T13:38:43.235Z,69327.38
2022-10-27T13:41:10.556Z,69316.38
2022-10-27T13:43:37.594Z,69322.06
2022-10-27T13:46:04.647Z,69322.63
2022-10-27T13:48:33.414Z,69319.38
2022-10-27T13:51:28.648Z,69286.53
2022-10-27T13:54:27.020Z,69306.09
2022-10-27T13:56:54.047Z,69295.41
2022-10-27T13:59:27.029Z,69305.50
2022-10-27T14:01:59.454Z,69266.53
2022-10-27T14:04:47.082Z,69290.28
2022-10-27T14:07:15.199Z,69285.16
2022-10-27T14:09:47.186Z,69258.00
2022-10-27T14:12:20.187Z,69251.16
2022-10-27T14:14:50.010Z,69245.47
2022-10-27T14:17:27.951Z,69254.00
2022-10-27T14:20:31.826Z,69277.72
2022-10-27T14:23:18.306Z,69274.88
2022-10-27T14:25:46.949Z,69248.88
2022-10-27T14:28:14.926Z,69268.59
2022-10-27T14:30:44.095Z,69265.56
2022-10-27T14:33:19.459Z,69253.19
2022-10-27T14:35:47.405Z,69245.94
2022-10-27T14:38:17.528Z,69257.00
2022-10-27T14:40:46.846Z,69242.34
2022-10-27T14:43:19.082Z,69240.47
2022-10-27T14:45:50.757Z,69219.53
2022-10-27T14:48:26.656Z,69219.94
2022-10-27T14:50:55.276Z,69208.31
2022-10-27T14:53:36.193Z,69183.31
2022-10-27T14:56:15.934Z,69191.03
2022-10-27T14:58:50.871Z,69184.19
2022-10-27T15:01:33.584Z,69176.78
2022-10-27T15:04:22.442Z,69171.88
2022-10-27T15:06:52.606Z,69166.53
2022-10-27T15:09:37.242Z,69145.97
2022-10-27T15:12:26.079Z,69139.16
2022-10-27T15:14:55.194Z,69127.19
2022-10-27T15:17:33.611Z,69123.19
2022-10-27T15:20:08.198Z,69116.91
2022-10-27T15:22:42.735Z,69118.25
2022-10-27T15:25:14.286Z,69103.41
2022-10-27T15:27:43.304Z,69108.78
2022-10-27T15:30:20.109Z,69100.22
2022-10-27T15:32:47.820Z,69080.84
2022-10-27T15:35:34.140Z,69058.63
2022-10-27T15:38:03.859Z,69055.41
2022-10-27T15:40:45.462Z,69050.66
2022-10-27T15:43:23.785Z,69046.84
2022-10-27T15:45:52.324Z,69037.19
2022-10-27T15:48:25.501Z,69021.78
2022-10-27T15:51:05.348Z,69024.63
2022-10-27T15:53:36.644Z,68988.44
2022-10-27T15:56:23.777Z,69005.09
2022-10-27T15:59:11.161Z,68988.75
2022-10-27T16:01:40.062Z,68990.84
2022-10-27T16:04:36.064Z,68970.91
2022-10-27T16:07:12.661Z,68952.03
2022-10-27T16:09:51.059Z,68977.16
2022-10-27T16:12:36.961Z,68973.19
2022-10-27T16:15:20.888Z,68975.84
2022-10-27T16:17:57.572Z,68960.28
2022-10-27T16:20:37.812Z,68954.03
2022-10-27T16:23:14.689Z,68958.00
2022-10-27T16:25:50.424Z,68938.06
2022-10-27T16:28:24.629Z,68937.72
2022-10-27T16:30:52.621Z,68944.75
2022-10-27T16:33:25.034Z,68945.69
2022-10-27T16:35:55.547Z,68940.16
2022-10-27T16:38:22.795Z,68935.22
2022-10-27T16:40:52.084Z,68932.75
2022-10-27T16:43:31.301Z,68930.09
2022-10-27T16:45:58.987Z,68928.41
2022-10-27T16:48:26.412Z,68925.38
2022-10-27T16:50:53.683Z,68922.50
2022-10-27T16:53:21.482Z,68912.44
2022-10-27T16:56:01.998Z,68881.44
2022-10-27T16:58:29.590Z,68869.47
2022-10-27T17:00:57.000Z,68894.63
2022-10-27T17:03:24.405Z,68885.53
2022-10-27T17:05:51.864Z,68879.44
2022-10-27T17:08:19.267Z,68867.31
2022-10-27T17:10:49.011Z,68871.88
2022-10-27T17:13:16.616Z,68866.94
2022-10-27T17:15:47.306Z,68873.22
2022-10-27T17:18:17.295Z,68860.28
2022-10-27T17:20:55.906Z,68865.06
2022-10-27T17:23:24.129Z,68860.88
2022-10-27T17:25:51.681Z,68856.50
2022-10-27T17:28:19.968Z,68855.53
2022-10-27T17:30:47.944Z,68850.59
2022-10-27T17:33:15.158Z,68851.38
2022-10-27T17:35:43.336Z,68854.22
2022-10-27T17:38:10.615Z,68848.53
2022-10-27T17:40:39.578Z,68839.06
2022-10-27T17:43:08.730Z,68837.16
2022-10-27T18:15:35.929Z,68765.69
2022-10-27T18:18:05.942Z,68771.56
2022-10-27T18:20:33.529Z,68757.72
2022-10-27T18:23:01.002Z,68760.38
2022-10-27T18:25:28.460Z,68754.88
2022-10-27T18:27:57.811Z,68748.44
2022-10-27T18:30:25.142Z,68749.56
2022-10-27T18:32:53.548Z,68746.75
2022-10-27T18:35:21.635Z,68750.13
2022-10-27T18:37:49.333Z,68739.91
2022-10-27T18:40:16.777Z,68740.47
2022-10-27T18:42:44.212Z,68736.88
2022-10-27T18:45:12.226Z,68733.09
2022-10-27T18:47:40.001Z,68726.28
2022-10-27T18:50:10.426Z,68723.78
2022-10-27T18:52:38.058Z,68723.03
2022-10-27T18:55:05.892Z,68724.00
2022-10-27T18:57:33.666Z,68732.16
2022-10-27T19:00:00.984Z,68705.16
2022-10-27T19:02:28.505Z,68727.97
2022-10-27T19:04:56.542Z,68725.88
2022-10-27T19:07:27.648Z,68725.13
2022-10-27T19:09:55.816Z,68723.78
2022-10-27T19:12:23.590Z,68726.28
2022-10-27T19:14:51.964Z,68723.59
2022-10-27T19:17:19.302Z,68722.47
2022-10-27T19:19:46.677Z,68735.56
2022-10-27T19:22:14.522Z,68724.16
2022-10-27T19:24:44.182Z,68720.78
2022-10-27T19:27:15.344Z,68723.81
2022-10-27T19:29:43.483Z,68711.84
2022-10-27T19:32:10.997Z,68720.03
2022-10-27T19:34:38.352Z,68692.09
2022-10-27T19:37:06.149Z,68712.63
2022-10-27T19:39:34.001Z,68718.88
2022-10-27T19:42:01.304Z,68719.47
2022-10-27T19:44:30.376Z,68712.81
2022-10-27T19:46:57.893Z,68714.91
2022-10-27T19:49:26.812Z,68714.91
2022-10-27T19:51:54.566Z,68704.69
2022-10-27T19:54:22.369Z,68696.34
2022-10-27T19:56:53.996Z,68692.56
2022-10-27T19:59:34.865Z,68682.69
2022-10-27T20:02:02.827Z,68679.66
2022-10-27T20:04:32.216Z,68676.25
2022-10-27T20:07:06.602Z,68678.16
2022-10-27T20:09:34.563Z,68668.50
2022-10-27T20:12:02.251Z,68672.09
2022-10-27T20:14:31.722Z,68666.03
2022-10-27T20:16:58.914Z,68664.53
2022-10-27T20:19:28.882Z,68662.81
2022-10-27T20:21:56.218Z,68674.38
2022-10-27T20:24:23.440Z,68678.34
2022-10-27T20:26:53.550Z,68673.03
2022-10-27T20:29:24.150Z,68672.28
2022-10-27T20:31:54.788Z,68665.66
2022-10-27T20:34:22.027Z,68657.13
2022-10-27T20:36:49.293Z,68648.56
2022-10-27T20:39:16.677Z,68648.41
2022-10-27T20:41:44.051Z,68640.06
2022-10-27T20:44:11.298Z,68643.28
2022-10-27T20:46:38.640Z,68638.19
2022-10-27T20:49:06.462Z,68629.25
2022-10-27T20:51:33.921Z,68625.13
2022-10-27T20:54:02.152Z,68612.97
2022-10-27T20:56:37.209Z,68612.59
2022-10-27T20:59:05.904Z,68613.75
2022-10-27T21:01:37.108Z,68613.75
2022-10-27T21:04:10.155Z,68612.03
2022-10-27T21:06:40.255Z,68601.44
2022-10-27T21:09:11.919Z,68603.34
2022-10-27T21:11:42.356Z,68597.84
2022-10-27T21:14:10.723Z,68590.47
2022-10-27T21:16:38.537Z,68582.69
2022-10-27T21:19:08.257Z,68590.09
2022-10-27T21:21:35.963Z,68584.63
2022-10-27T21:24:07.428Z,68586.66
2022-10-27T21:26:35.164Z,68612.03
2022-10-27T21:29:02.529Z,68629.66
2022-10-27T21:31:31.579Z,68631.56
2022-10-27T21:34:04.336Z,68637.59
2022-10-27T21:36:31.778Z,68634.22
2022-10-27T21:38:59.746Z,68632.50
2022-10-27T21:41:26.990Z,68622.25
2022-10-27T21:43:56.115Z,68613.19
2022-10-27T21:46:26.640Z,68606.75
2022-10-27T21:48:58.457Z,68593.50
2022-10-27T21:51:26.297Z,68598.41
2022-10-27T21:54:00.807Z,68601.63
2022-10-27T21:56:34.309Z,68597.28
2022-10-27T21:59:02.766Z,68589.31
2022-10-27T22:01:30.475Z,68584.78
2022-10-27T22:03:57.896Z,68575.91
2022-10-27T22:06:31.549Z,68584.78
2022-10-27T22:08:59.843Z,68574.19
2022-10-27T22:11:30.053Z,68567.94
2022-10-27T22:13:57.669Z,68568.91
2022-10-27T22:16:27.437Z,68570.03
2022-10-27T22:18:57.817Z,68564.53
2022-10-27T22:21:28.036Z,68566.03
2022-10-27T22:23:55.354Z,68573.25
2022-10-27T22:26:23.665Z,68567.19
2022-10-27T22:28:51.615Z,68564.38
2022-10-27T22:31:20.554Z,68558.84
2022-10-27T22:33:48.625Z,68559.25
2022-10-27T22:36:17.748Z,68564.72
2022-10-27T22:38:45.776Z,68559.25
2022-10-27T22:41:16.043Z,68563.41
2022-10-27T22:43:44.293Z,68556.41
2022-10-27T22:46:24.016Z,68549.78
2022-10-27T22:48:51.785Z,68533.09
2022-10-27T22:51:22.764Z,68531.41
2022-10-27T22:53:52.371Z,68551.47
2022-10-27T22:56:22.462Z,68556.41
2022-10-27T22:58:54.508Z,68557.38
2022-10-27T23:01:24.827Z,68553.56
2022-10-27T23:03:58.446Z,68562.28
2022-10-27T23:06:28.162Z,68555.28
2022-10-27T23:09:01.346Z,68555.28
2022-10-27T23:11:34.875Z,68562.28
2022-10-27T23:14:03.309Z,68553.75
2022-10-27T23:16:32.284Z,68558.09
2022-10-27T23:19:00.710Z,68555.28
2022-10-27T23:21:28.833Z,68553.00
2022-10-27T23:23:58.122Z,68553.38
2022-10-27T23:26:28.509Z,68551.31
2022-10-27T23:28:58.378Z,68554.72
2022-10-27T23:31:27.477Z,68554.72
2022-10-27T23:33:56.785Z,68552.41
2022-10-27T23:36:25.102Z,68550.75
2022-10-27T23:38:53.216Z,68551.84
2022-10-27T23:41:21.605Z,68546.38
2022-10-27T23:43:53.276Z,68543.53
2022-10-27T23:46:21.587Z,68550.16
2022-10-27T23:48:49.342Z,68549.59
2022-10-27T23:51:16.975Z,68553.94
2022-10-27T23:53:44.258Z,68555.84
2022-10-27T23:56:12.303Z,68553.56
2022-10-27T23:58:42.995Z,68551.47
